Accueil
METAR-TAF:

METAR-TAF

Aéroports :

Angoulême, France

Aéroport international Angoulême-Cognac

latitude: 45-43-46N, longitude: 00-13-08E, altitude: 132 m

METAR: absent

Heure: 17:46 (16:46 UTC)

Prévision

Le bulletin a été fait il y a 5 heures et 46 minutes, à 11:00 UTC
Prévision valable du 22 à 12 UTC au 23 à 12 UTC
Vent 15 kt de nord/nord-est
Visibilité: 7000 m
Nuages épars à une hauteur de 2000 ft
Probabilité 40%
du 22 à 12 UTC au 23 à 12 UTC
Visibilité: 3000 m
brume sèche
Temporairement
du 23 à 05 UTC au 23 à 12 UTC
Nuages fragmentés à une hauteur de 1200 ft

TAF: LFBU 221100Z 2212/2312 02015KT 7000 SCT020 PROB40 2212/2312 3000 HZ TEMPO 2305/2312 BKN012

Observations et prévisions météorologiques de plus de 4000 aéroports (messages METAR et TAF).

Les stations disponibles sont représentées par des disques jaunes et rouges sur la carte.

Passer la souris dessus pour voir le nom de la station.

Cliquer dessus pour voir les observations et prévisions météorologiques.

Pour changer de carte: cliquez sur les boutons verts avec une croix noire pour zoomer, sur le bouton vert avec un tiret pour effectuer un zoom arrière, ou sur les flèches vertes pour les cartes adjacentes.


METAR-TAF: